Time;durP1;ratioP1;P1;durP2;ratioP2;P2;SDS_P1;SDS_P2;PMS_P1;PMS_P2;Temp;Humidity;BMP_temperature;BMP_pressure;BME280_temperature;BME280_humidity;BME280_pressure;Samples;Min_cycle;Max_cycle;Signal;HPM_P1;HPM_P2
2022/03/19 00:01:19;;;;;;;31.80;15.02;;;;;;;;;;5032859;28;20046;-89
2022/03/19 00:03:48;;;;;;;40.05;16.50;;;;;;;;;;5032060;28;20045;-89
2022/03/19 00:06:16;;;;;;;37.30;15.40;;;;;;;;;;5031000;28;20133;-88
2022/03/19 00:08:47;;;;;;;43.55;17.10;;;;;;;;;;5031094;28;20061;-89
2022/03/19 00:11:15;;;;;;;35.08;15.45;;;;;;;;;;5034085;28;20045;-89
2022/03/19 00:13:44;;;;;;;41.45;15.82;;;;;;;;;;5036697;28;20132;-89
2022/03/19 00:16:12;;;;;;;37.67;16.23;;;;;;;;;;5033359;28;20057;-89
2022/03/19 00:18:41;;;;;;;36.92;17.10;;;;;;;;;;5037354;28;20045;-89
2022/03/19 00:21:09;;;;;;;34.65;15.30;;;;;;;;;;5031184;28;20047;-88
2022/03/19 00:23:38;;;;;;;37.22;16.25;;;;;;;;;;5033410;28;20064;-89
2022/03/19 00:26:08;;;;;;;38.17;16.23;;;;;;;;;;5032249;28;20056;-89
2022/03/19 00:28:38;;;;;;;39.40;16.90;;;;;;;;;;5030854;28;20164;-88
2022/03/19 00:31:07;;;;;;;45.75;18.60;;;;;;;;;;5030399;28;20053;-89
2022/03/19 00:33:35;;;;;;;42.50;18.52;;;;;;;;;;5013273;28;20045;-89
2022/03/19 00:36:08;;;;;;;43.58;18.02;;;;;;;;;;5049029;28;20088;-89
2022/03/19 00:38:36;;;;;;;44.53;16.52;;;;;;;;;;5048227;28;20053;-89
2022/03/19 00:41:09;;;;;;;41.75;18.10;;;;;;;;;;5050401;28;20086;-88
2022/03/19 00:43:37;;;;;;;47.47;20.02;;;;;;;;;;5051273;28;20048;-89
2022/03/19 00:46:08;;;;;;;49.83;19.75;;;;;;;;;;5058344;28;20037;-89
2022/03/19 00:48:37;;;;;;;46.58;18.20;;;;;;;;;;5060438;28;20048;-89
2022/03/19 00:51:09;;;;;;;49.40;19.60;;;;;;;;;;5052387;28;20068;-88
2022/03/19 00:53:37;;;;;;;49.70;18.88;;;;;;;;;;5049041;28;20072;-88
2022/03/19 00:56:06;;;;;;;49.55;20.90;;;;;;;;;;5052204;28;20048;-89
2022/03/19 00:58:35;;;;;;;48.45;20.35;;;;;;;;;;5049390;28;20580;-88
2022/03/19 01:01:07;;;;;;;53.05;20.52;;;;;;;;;;5055120;28;20459;-89
2022/03/19 01:03:35;;;;;;;56.67;20.98;;;;;;;;;;5049360;28;20069;-89
2022/03/19 01:06:06;;;;;;;46.50;20.67;;;;;;;;;;5050472;28;20483;-89
2022/03/19 01:08:35;;;;;;;49.92;20.25;;;;;;;;;;5050054;28;20041;-89
2022/03/19 01:11:06;;;;;;;61.85;23.40;;;;;;;;;;5046061;28;20041;-89
2022/03/19 01:13:36;;;;;;;57.08;22.00;;;;;;;;;;5041732;28;20076;-88
2022/03/19 01:16:07;;;;;;;53.95;22.08;;;;;;;;;;5051840;28;20528;-88
2022/03/19 01:18:36;;;;;;;56.70;22.20;;;;;;;;;;5048937;28;20041;-89
2022/03/19 01:21:08;;;;;;;48.15;21.48;;;;;;;;;;5055857;28;20137;-89
2022/03/19 01:23:36;;;;;;;59.72;23.25;;;;;;;;;;5051141;28;20064;-89
2022/03/19 01:26:08;;;;;;;70.80;24.85;;;;;;;;;;5055602;28;20047;-89
2022/03/19 01:28:38;;;;;;;56.45;23.77;;;;;;;;;;5035992;28;20105;-89
2022/03/19 01:31:06;;;;;;;59.67;24.60;;;;;;;;;;5056442;28;20502;-89
2022/03/19 01:33:35;;;;;;;59.97;24.80;;;;;;;;;;5036719;28;20167;-88
2022/03/19 01:36:06;;;;;;;61.33;24.50;;;;;;;;;;5035818;28;20117;-89
2022/03/19 01:38:36;;;;;;;58.05;24.63;;;;;;;;;;5051536;28;20136;-89
2022/03/19 01:41:07;;;;;;;64.45;25.40;;;;;;;;;;5055362;28;20059;-88
2022/03/19 01:43:39;;;;;;;65.82;24.67;;;;;;;;;;5054483;28;20077;-88
2022/03/19 01:46:08;;;;;;;67.35;25.15;;;;;;;;;;5054067;28;20132;-89
2022/03/19 01:48:37;;;;;;;68.00;24.90;;;;;;;;;;5035799;28;20122;-89
2022/03/19 01:51:08;;;;;;;73.18;26.77;;;;;;;;;;5057086;28;20131;-88
2022/03/19 01:53:36;;;;;;;63.45;24.65;;;;;;;;;;5055688;28;20517;-88
2022/03/19 01:56:08;;;;;;;64.93;24.30;;;;;;;;;;5060554;28;20076;-89
2022/03/19 01:58:38;;;;;;;62.22;23.58;;;;;;;;;;5060014;28;20101;-88
2022/03/19 02:01:08;;;;;;;68.57;26.10;;;;;;;;;;5053869;28;20129;-89
2022/03/19 02:03:36;;;;;;;67.22;24.85;;;;;;;;;;5050429;28;20055;-89
2022/03/19 02:06:08;;;;;;;67.68;26.23;;;;;;;;;;5055602;28;20103;-88
2022/03/19 02:08:37;;;;;;;73.32;26.33;;;;;;;;;;5055896;28;20620;-89
2022/03/19 02:11:06;;;;;;;66.97;25.30;;;;;;;;;;5055850;28;20057;-89
2022/03/19 02:13:35;;;;;;;64.93;24.92;;;;;;;;;;5054549;28;20112;-89
2022/03/19 02:16:07;;;;;;;66.93;25.00;;;;;;;;;;5050225;28;20045;-89
2022/03/19 02:18:35;;;;;;;75.32;27.13;;;;;;;;;;5052386;28;20473;-88
2022/03/19 02:21:07;;;;;;;72.35;27.75;;;;;;;;;;5052284;28;20143;-89
2022/03/19 02:26:22;;;;;;;67.57;25.25;;;;;;;;;;5058873;28;20128;-88
2022/03/19 02:28:51;;;;;;;66.07;25.60;;;;;;;;;;5051565;28;20136;-88
2022/03/19 02:31:19;;;;;;;77.72;29.05;;;;;;;;;;5064716;28;20052;-88
2022/03/19 02:33:48;;;;;;;80.82;27.95;;;;;;;;;;5064288;28;20076;-89
2022/03/19 02:36:20;;;;;;;74.70;26.98;;;;;;;;;;5032617;28;20057;-88
2022/03/19 02:38:51;;;;;;;80.18;29.48;;;;;;;;;;5028449;28;20077;-89
2022/03/19 02:41:20;;;;;;;72.40;27.60;;;;;;;;;;5034739;28;20085;-88
2022/03/19 02:43:49;;;;;;;70.28;27.98;;;;;;;;;;5035622;28;20045;-88
2022/03/19 02:46:17;;;;;;;79.85;27.00;;;;;;;;;;5034429;28;20085;-89
2022/03/19 02:48:45;;;;;;;75.70;26.40;;;;;;;;;;5029715;28;20111;-88
2022/03/19 02:51:14;;;;;;;77.80;27.02;;;;;;;;;;5032951;28;20562;-88
2022/03/19 02:53:42;;;;;;;74.00;27.20;;;;;;;;;;5032657;28;20139;-89
2022/03/19 02:56:12;;;;;;;71.18;26.75;;;;;;;;;;5033855;28;20080;-89
2022/03/19 02:58:40;;;;;;;78.68;26.55;;;;;;;;;;5028738;28;20121;-89
2022/03/19 03:01:08;;;;;;;73.68;27.48;;;;;;;;;;5030718;28;20140;-88
2022/03/19 03:03:37;;;;;;;67.75;26.52;;;;;;;;;;5027855;28;20057;-88
2022/03/19 03:06:09;;;;;;;70.93;26.95;;;;;;;;;;5033332;28;20077;-88
2022/03/19 03:08:37;;;;;;;70.60;25.13;;;;;;;;;;5030162;28;20483;-89
2022/03/19 03:11:08;;;;;;;70.82;27.23;;;;;;;;;;5041643;28;20083;-88
2022/03/19 03:13:38;;;;;;;66.00;25.02;;;;;;;;;;5025178;28;20618;-88
2022/03/19 03:16:06;;;;;;;69.75;25.88;;;;;;;;;;5029262;28;20051;-88
2022/03/19 03:18:35;;;;;;;70.78;25.58;;;;;;;;;;5035592;28;20091;-88
2022/03/19 03:21:09;;;;;;;72.40;25.45;;;;;;;;;;5048449;28;20141;-88
2022/03/19 03:23:38;;;;;;;65.38;23.60;;;;;;;;;;5029104;28;20174;-89
2022/03/19 03:26:06;;;;;;;65.22;25.55;;;;;;;;;;5032980;28;20108;-89
2022/03/19 03:28:35;;;;;;;61.65;23.73;;;;;;;;;;5052629;28;20149;-88
2022/03/19 03:31:07;;;;;;;65.47;24.05;;;;;;;;;;5038567;28;20084;-89
2022/03/19 03:33:38;;;;;;;62.15;25.23;;;;;;;;;;5041106;28;20071;-88
2022/03/19 03:36:06;;;;;;;60.97;23.75;;;;;;;;;;5038007;28;20080;-88
2022/03/19 03:38:35;;;;;;;70.18;23.83;;;;;;;;;;5032191;28;20540;-88
2022/03/19 03:41:09;;;;;;;67.43;24.75;;;;;;;;;;5031494;28;20136;-88
2022/03/19 03:43:37;;;;;;;58.83;22.17;;;;;;;;;;5045556;28;20240;-88
2022/03/19 03:46:07;;;;;;;65.05;23.50;;;;;;;;;;5032297;28;20473;-88
2022/03/19 03:48:36;;;;;;;69.57;24.50;;;;;;;;;;5032626;28;20057;-88
2022/03/19 03:51:07;;;;;;;63.53;24.05;;;;;;;;;;5032268;28;20104;-88
2022/03/19 03:53:37;;;;;;;62.00;24.13;;;;;;;;;;5022118;28;20050;-88
2022/03/19 03:56:06;;;;;;;67.68;24.10;;;;;;;;;;5026760;28;20068;-88
2022/03/19 03:58:34;;;;;;;59.20;22.33;;;;;;;;;;5029688;28;20049;-88
2022/03/19 04:01:06;;;;;;;60.75;22.85;;;;;;;;;;5031667;28;20053;-89
2022/03/19 04:03:35;;;;;;;66.15;23.58;;;;;;;;;;5029596;28;20049;-88
2022/03/19 04:06:07;;;;;;;63.35;23.10;;;;;;;;;;5031108;28;20115;-89
2022/03/19 04:08:35;;;;;;;61.70;22.52;;;;;;;;;;5021326;28;20041;-88
2022/03/19 04:11:07;;;;;;;63.00;23.42;;;;;;;;;;5027155;28;20120;-88
2022/03/19 04:13:36;;;;;;;54.25;21.02;;;;;;;;;;5044135;28;20052;-88
2022/03/19 04:16:07;;;;;;;65.20;23.35;;;;;;;;;;5032177;28;20045;-88
2022/03/19 04:18:37;;;;;;;65.10;24.65;;;;;;;;;;5033599;28;20124;-88
2022/03/19 04:21:08;;;;;;;62.13;23.35;;;;;;;;;;5032005;28;20052;-88
2022/03/19 04:23:37;;;;;;;59.05;22.40;;;;;;;;;;5031162;28;20066;-88
2022/03/19 04:26:08;;;;;;;63.38;23.67;;;;;;;;;;5031537;28;20179;-88
2022/03/19 04:28:36;;;;;;;58.20;24.08;;;;;;;;;;5037340;28;20084;-88
2022/03/19 04:31:07;;;;;;;54.20;22.08;;;;;;;;;;5020552;28;20069;-88
2022/03/19 04:33:37;;;;;;;55.85;21.48;;;;;;;;;;5031660;28;20053;-88
2022/03/19 04:38:52;;;;;;;62.20;22.95;;;;;;;;;;5048612;28;20063;-88
2022/03/19 04:41:20;;;;;;;58.05;22.00;;;;;;;;;;5048533;28;20539;-89
2022/03/19 04:43:48;;;;;;;54.83;20.10;;;;;;;;;;5053071;28;20571;-88
2022/03/19 04:46:17;;;;;;;60.00;20.70;;;;;;;;;;5053039;28;20151;-88
2022/03/19 04:48:47;;;;;;;52.30;20.33;;;;;;;;;;5052383;28;20053;-88
2022/03/19 04:51:15;;;;;;;59.45;21.30;;;;;;;;;;5053471;28;20064;-88
2022/03/19 04:53:49;;;;;;;53.05;20.50;;;;;;;;;;5048929;28;20076;-88
2022/03/19 04:56:17;;;;;;;52.70;20.38;;;;;;;;;;5052067;28;20053;-88
2022/03/19 04:58:45;;;;;;;55.92;21.38;;;;;;;;;;5052119;28;20408;-88
2022/03/19 05:01:14;;;;;;;58.22;21.58;;;;;;;;;;5052608;28;20037;-88
2022/03/19 05:03:43;;;;;;;47.80;20.15;;;;;;;;;;5050843;28;20048;-88
2022/03/19 05:06:13;;;;;;;55.80;21.38;;;;;;;;;;5053092;28;20128;-88
2022/03/19 05:08:42;;;;;;;62.08;20.05;;;;;;;;;;5054449;28;20542;-89
2022/03/19 05:11:16;;;;;;;53.25;21.35;;;;;;;;;;5054928;28;20049;-88
2022/03/19 05:13:45;;;;;;;54.55;19.98;;;;;;;;;;5058473;28;20516;-88
2022/03/19 05:16:13;;;;;;;51.33;19.15;;;;;;;;;;5061725;28;20052;-88
2022/03/19 05:18:43;;;;;;;50.63;19.67;;;;;;;;;;5053375;28;20103;-88
2022/03/19 05:21:13;;;;;;;54.80;20.38;;;;;;;;;;5051203;28;20045;-88
2022/03/19 05:23:43;;;;;;;50.75;21.17;;;;;;;;;;5050686;28;20107;-88
2022/03/19 05:26:11;;;;;;;65.15;22.10;;;;;;;;;;5050798;28;20071;-88
2022/03/19 05:28:40;;;;;;;51.05;20.80;;;;;;;;;;5050788;28;20087;-88
2022/03/19 05:31:29;;;;;;;61.95;21.35;;;;;;;;;;5053184;28;20049;-88
2022/03/19 05:36:45;;;;;;;50.80;19.63;;;;;;;;;;5027952;28;20140;-88
2022/03/19 05:39:14;;;;;;;57.72;20.92;;;;;;;;;;5029337;28;20049;-88
2022/03/19 05:41:42;;;;;;;49.20;19.25;;;;;;;;;;5029761;28;20052;-89
2022/03/19 05:44:10;;;;;;;52.97;19.33;;;;;;;;;;5041582;28;20045;-88
2022/03/19 05:46:39;;;;;;;50.65;19.60;;;;;;;;;;5036425;28;20145;-88
2022/03/19 05:49:07;;;;;;;58.17;20.25;;;;;;;;;;5031995;28;20107;-88
2022/03/19 05:51:36;;;;;;;55.85;19.98;;;;;;;;;;5028603;28;20468;-88
2022/03/19 05:54:06;;;;;;;49.05;20.27;;;;;;;;;;5034043;28;20053;-88
2022/03/19 05:56:34;;;;;;;48.17;18.38;;;;;;;;;;5035080;28;20120;-88
2022/03/19 05:59:02;;;;;;;51.20;19.52;;;;;;;;;;5022696;28;20493;-89
2022/03/19 06:01:31;;;;;;;52.33;18.33;;;;;;;;;;5027638;28;20049;-89
2022/03/19 06:04:00;;;;;;;59.13;20.95;;;;;;;;;;5025828;28;20060;-89
2022/03/19 06:06:29;;;;;;;50.13;19.98;;;;;;;;;;5029010;28;20064;-89
2022/03/19 06:08:58;;;;;;;48.95;19.17;;;;;;;;;;5028859;28;20076;-88
2022/03/19 06:11:28;;;;;;;54.50;19.55;;;;;;;;;;5034926;28;20059;-89
2022/03/19 06:13:56;;;;;;;50.30;19.08;;;;;;;;;;5029847;28;20466;-89
2022/03/19 06:16:25;;;;;;;52.40;19.52;;;;;;;;;;5009165;28;20052;-89
2022/03/19 06:18:54;;;;;;;50.78;19.08;;;;;;;;;;5029411;28;20094;-88
2022/03/19 06:21:24;;;;;;;57.13;19.10;;;;;;;;;;5029759;28;20480;-89
2022/03/19 06:23:52;;;;;;;55.42;19.88;;;;;;;;;;5047441;28;20129;-88
2022/03/19 06:26:23;;;;;;;54.08;19.80;;;;;;;;;;5016228;28;20883;-88
2022/03/19 06:28:53;;;;;;;54.78;19.58;;;;;;;;;;5030353;28;20124;-89
2022/03/19 06:31:21;;;;;;;49.90;18.20;;;;;;;;;;5033414;28;20176;-90
2022/03/19 06:33:50;;;;;;;52.83;20.23;;;;;;;;;;5041788;28;20405;-89
2022/03/19 06:39:05;;;;;;;50.15;18.83;;;;;;;;;;5052522;28;20045;-88
2022/03/19 06:41:34;;;;;;;48.42;18.23;;;;;;;;;;5048358;28;20049;-87
2022/03/19 06:44:04;;;;;;;51.05;19.95;;;;;;;;;;5050313;28;20073;-87
2022/03/19 06:46:32;;;;;;;46.17;18.02;;;;;;;;;;5054054;28;20047;-88
2022/03/19 06:49:01;;;;;;;52.38;19.15;;;;;;;;;;5048456;28;20087;-88
2022/03/19 06:51:29;;;;;;;41.85;18.17;;;;;;;;;;5050641;28;20641;-88
2022/03/19 06:54:00;;;;;;;47.42;17.70;;;;;;;;;;5050394;28;20061;-88
2022/03/19 06:56:29;;;;;;;41.58;17.30;;;;;;;;;;5049050;28;20472;-88
2022/03/19 06:58:57;;;;;;;41.28;16.92;;;;;;;;;;5049167;28;20069;-88
2022/03/19 07:01:27;;;;;;;44.03;16.55;;;;;;;;;;5061634;28;20071;-87
2022/03/19 07:03:55;;;;;;;41.83;16.90;;;;;;;;;;5053224;28;20465;-87
2022/03/19 07:06:25;;;;;;;42.95;16.27;;;;;;;;;;5047804;28;20506;-88
2022/03/19 07:09:14;;;;;;;41.38;16.77;;;;;;;;;;5049964;28;20053;-88
2022/03/19 07:11:42;;;;;;;40.00;15.82;;;;;;;;;;5049645;28;20076;-88
2022/03/19 07:14:10;;;;;;;40.00;15.63;;;;;;;;;;5052258;28;20503;-88
2022/03/19 07:16:42;;;;;;;38.70;14.93;;;;;;;;;;5061667;28;20164;-87
2022/03/19 07:19:12;;;;;;;44.38;16.65;;;;;;;;;;5046923;28;20052;-88
2022/03/19 07:21:40;;;;;;;36.80;15.07;;;;;;;;;;5053419;28;20505;-88
2022/03/19 07:24:08;;;;;;;33.60;14.70;;;;;;;;;;5051137;28;20085;-88
2022/03/19 07:26:37;;;;;;;44.42;15.80;;;;;;;;;;5059426;28;20798;-88
2022/03/19 07:29:05;;;;;;;36.28;14.93;;;;;;;;;;5053374;28;20053;-88
2022/03/19 07:31:34;;;;;;;43.92;16.48;;;;;;;;;;5054973;28;20443;-88
2022/03/19 07:34:05;;;;;;;32.72;14.65;;;;;;;;;;5051468;28;20083;-88
2022/03/19 07:36:34;;;;;;;35.72;14.27;;;;;;;;;;5059600;28;20083;-88
2022/03/19 07:39:02;;;;;;;35.08;16.10;;;;;;;;;;5054612;28;20147;-89
2022/03/19 07:41:48;;;;;;;33.67;14.52;;;;;;;;;;5055172;28;20157;-88
2022/03/19 07:44:19;;;;;;;30.55;13.10;;;;;;;;;;5052394;28;20539;-88
2022/03/19 07:46:47;;;;;;;35.22;14.57;;;;;;;;;;5055191;28;20137;-88
2022/03/19 07:49:17;;;;;;;40.75;15.35;;;;;;;;;;5053823;28;20144;-88
2022/03/19 07:51:50;;;;;;;34.00;14.13;;;;;;;;;;5064222;28;20488;-88
2022/03/19 07:54:18;;;;;;;35.92;12.93;;;;;;;;;;5053234;28;20308;-88
2022/03/19 07:56:48;;;;;;;29.90;14.15;;;;;;;;;;5056914;28;20092;-88
2022/03/19 07:59:16;;;;;;;34.38;15.02;;;;;;;;;;5055086;28;20072;-89
2022/03/19 08:01:48;;;;;;;34.58;14.60;;;;;;;;;;5048163;28;20067;-90
2022/03/19 08:04:19;;;;;;;34.72;14.15;;;;;;;;;;5030376;28;20049;-89
2022/03/19 08:06:49;;;;;;;35.40;13.85;;;;;;;;;;5050416;28;20393;-89
2022/03/19 08:09:18;;;;;;;38.00;15.23;;;;;;;;;;5049774;28;20106;-90
2022/03/19 08:14:59;;;;;;;26.67;11.63;;;;;;;;;;5047659;28;20046;-90
2022/03/19 08:30:19;;;;;;;25.88;11.75;;;;;;;;;;5041026;28;20042;-90
2022/03/19 08:33:01;;;;;;;28.60;13.50;;;;;;;;;;5049040;28;20135;-90
2022/03/19 08:42:32;;;;;;;28.45;11.68;;;;;;;;;;5050188;28;20101;-90
2022/03/19 08:48:21;;;;;;;27.30;12.25;;;;;;;;;;5058065;28;20423;-92
2022/03/19 08:57:07;;;;;;;29.25;12.25;;;;;;;;;;5036498;28;20083;-91
2022/03/19 08:59:36;;;;;;;33.50;12.88;;;;;;;;;;5051267;28;20144;-91
2022/03/19 09:05:00;;;;;;;28.80;11.80;;;;;;;;;;5046882;28;20408;-90
2022/03/19 09:07:59;;;;;;;23.80;10.73;;;;;;;;;;5027320;28;20049;-90
2022/03/19 09:13:57;;;;;;;26.48;12.32;;;;;;;;;;5046956;28;20408;-90
2022/03/19 09:19:28;;;;;;;29.02;11.98;;;;;;;;;;5048152;28;20135;-91
2022/03/19 09:24:41;;;;;;;26.85;11.85;;;;;;;;;;5047823;28;20354;-90
2022/03/19 09:27:10;;;;;;;25.85;12.38;;;;;;;;;;5033258;28;20055;-91
2022/03/19 09:32:57;;;;;;;27.05;12.07;;;;;;;;;;5041558;28;20128;-90
2022/03/19 09:41:18;;;;;;;27.83;12.02;;;;;;;;;;5050389;28;20106;-91
2022/03/19 09:43:51;;;;;;;22.30;12.57;;;;;;;;;;5049677;28;20119;-90
2022/03/19 09:49:27;;;;;;;21.73;11.75;;;;;;;;;;5047629;28;20061;-91
2022/03/19 09:52:19;;;;;;;25.70;10.80;;;;;;;;;;5047069;28;20053;-91
2022/03/19 09:55:03;;;;;;;22.38;11.02;;;;;;;;;;5044319;28;20053;-90
2022/03/19 09:57:31;;;;;;;19.80;10.82;;;;;;;;;;5049809;28;20053;-90
2022/03/19 10:09:12;;;;;;;21.05;9.10;;;;;;;;;;5041012;28;20049;-90
2022/03/19 10:11:43;;;;;;;20.33;9.90;;;;;;;;;;5053879;28;20102;-89
2022/03/19 10:14:12;;;;;;;22.30;10.50;;;;;;;;;;5053238;28;20053;-91
2022/03/19 10:20:09;;;;;;;20.50;10.25;;;;;;;;;;5032022;28;20056;-89
2022/03/19 10:22:40;;;;;;;18.95;9.60;;;;;;;;;;5047466;28;20146;-90
2022/03/19 10:25:14;;;;;;;18.92;10.43;;;;;;;;;;5047880;28;20408;-90
2022/03/19 10:28:08;;;;;;;24.35;10.23;;;;;;;;;;5050287;28;20045;-89
2022/03/19 10:36:38;;;;;;;18.17;9.63;;;;;;;;;;5050405;28;20060;-90
2022/03/19 10:42:15;;;;;;;24.65;9.60;;;;;;;;;;5053924;28;20048;-90
2022/03/19 10:44:48;;;;;;;18.35;8.88;;;;;;;;;;5044780;28;20060;-87
2022/03/19 10:47:22;;;;;;;21.08;8.82;;;;;;;;;;5049266;28;20098;-89
2022/03/19 10:50:00;;;;;;;18.40;9.60;;;;;;;;;;5050328;28;20087;-89
2022/03/19 10:52:34;;;;;;;19.10;9.57;;;;;;;;;;5035154;28;20060;-89
2022/03/19 10:55:04;;;;;;;18.77;10.02;;;;;;;;;;5053854;28;21000;-88
2022/03/19 10:57:33;;;;;;;19.00;9.52;;;;;;;;;;5053527;28;20133;-89
2022/03/19 11:00:05;;;;;;;15.68;8.60;;;;;;;;;;5056530;28;20056;-89
2022/03/19 11:02:48;;;;;;;18.23;8.95;;;;;;;;;;5053886;28;20517;-90
2022/03/19 11:05:20;;;;;;;16.38;8.90;;;;;;;;;;5052819;28;20067;-89
2022/03/19 11:07:49;;;;;;;17.40;8.95;;;;;;;;;;5051373;28;20124;-89
2022/03/19 11:10:19;;;;;;;13.95;7.80;;;;;;;;;;5050740;28;20126;-88
2022/03/19 11:12:52;;;;;;;19.35;9.52;;;;;;;;;;5052944;28;20408;-90
2022/03/19 11:15:23;;;;;;;17.40;9.13;;;;;;;;;;5053657;28;20125;-89
2022/03/19 11:17:53;;;;;;;17.15;8.32;;;;;;;;;;5052913;28;20087;-87
2022/03/19 11:20:35;;;;;;;18.08;8.98;;;;;;;;;;5052724;28;20053;-91
2022/03/19 11:23:06;;;;;;;20.83;10.02;;;;;;;;;;5049612;28;20053;-90
2022/03/19 11:34:56;;;;;;;15.80;8.57;;;;;;;;;;5052475;28;20071;-90
2022/03/19 11:37:42;;;;;;;32.38;10.13;;;;;;;;;;5053660;28;20052;-90
2022/03/19 11:40:29;;;;;;;18.95;9.23;;;;;;;;;;5047442;28;20045;-89
2022/03/19 11:43:18;;;;;;;18.35;8.70;;;;;;;;;;5038388;28;20049;-89
2022/03/19 11:45:53;;;;;;;20.15;9.48;;;;;;;;;;5051172;28;20150;-90
2022/03/19 11:48:42;;;;;;;20.33;10.48;;;;;;;;;;5047046;28;20497;-89
2022/03/19 11:51:19;;;;;;;18.45;8.63;;;;;;;;;;5032302;28;20139;-88
2022/03/19 11:53:58;;;;;;;22.02;9.30;;;;;;;;;;5048364;28;20408;-90
2022/03/19 12:06:09;;;;;;;18.37;8.97;;;;;;;;;;5050367;28;20076;-89
2022/03/19 12:08:49;;;;;;;22.20;10.18;;;;;;;;;;5046986;28;20385;-86
2022/03/19 12:11:18;;;;;;;15.32;8.02;;;;;;;;;;5050772;28;20044;-87
2022/03/19 12:13:51;;;;;;;16.70;8.05;;;;;;;;;;5046783;28;20503;-87
2022/03/19 12:16:39;;;;;;;17.45;9.23;;;;;;;;;;5046909;28;20041;-86
2022/03/19 12:19:09;;;;;;;13.18;7.65;;;;;;;;;;5032314;28;20044;-87
2022/03/19 12:21:38;;;;;;;14.68;7.88;;;;;;;;;;5047696;28;20131;-87
2022/03/19 12:24:16;;;;;;;16.48;8.75;;;;;;;;;;5048428;28;20148;-87
2022/03/19 12:26:45;;;;;;;15.70;8.23;;;;;;;;;;5040588;28;20053;-87
2022/03/19 12:29:15;;;;;;;19.77;9.52;;;;;;;;;;5048780;28;20053;-87
2022/03/19 12:31:46;;;;;;;20.90;9.90;;;;;;;;;;5053010;28;20049;-87
2022/03/19 12:34:15;;;;;;;19.98;9.80;;;;;;;;;;5049046;28;20140;-87
2022/03/19 12:36:44;;;;;;;17.33;8.65;;;;;;;;;;5051811;28;20049;-87
2022/03/19 12:39:13;;;;;;;20.48;10.27;;;;;;;;;;5047051;28;20467;-88
2022/03/19 12:41:41;;;;;;;19.77;9.30;;;;;;;;;;5051133;28;20528;-88
2022/03/19 12:44:35;;;;;;;20.98;9.65;;;;;;;;;;5048549;28;20128;-87
2022/03/19 12:47:06;;;;;;;23.40;9.95;;;;;;;;;;5050480;28;20061;-87
2022/03/19 12:49:35;;;;;;;23.20;10.73;;;;;;;;;;5047263;28;20045;-87
2022/03/19 12:52:08;;;;;;;18.08;10.02;;;;;;;;;;5044032;28;20052;-87
2022/03/19 12:54:37;;;;;;;22.38;11.13;;;;;;;;;;5049699;28;20048;-87
2022/03/19 12:57:09;;;;;;;22.45;10.10;;;;;;;;;;5047800;28;20454;-87
2022/03/19 12:59:47;;;;;;;23.40;10.27;;;;;;;;;;5049406;28;20362;-87
2022/03/19 13:02:16;;;;;;;20.35;9.80;;;;;;;;;;5053714;28;20118;-87
2022/03/19 13:04:45;;;;;;;18.83;9.35;;;;;;;;;;5046367;28;20053;-87
2022/03/19 13:07:15;;;;;;;18.73;10.27;;;;;;;;;;5042578;28;20054;-86
2022/03/19 13:09:43;;;;;;;21.48;11.00;;;;;;;;;;5046317;28;20136;-85
2022/03/19 13:12:16;;;;;;;21.05;10.02;;;;;;;;;;5050653;28;20536;-86
2022/03/19 13:14:50;;;;;;;18.88;9.60;;;;;;;;;;5047252;28;20052;-86
2022/03/19 13:17:19;;;;;;;21.60;10.00;;;;;;;;;;5048861;28;20103;-86
2022/03/19 13:19:48;;;;;;;23.95;9.60;;;;;;;;;;5045491;28;20048;-86
2022/03/19 13:22:19;;;;;;;20.38;10.18;;;;;;;;;;5047357;28;20059;-87
2022/03/19 13:24:49;;;;;;;18.35;9.40;;;;;;;;;;5046035;28;20051;-85
2022/03/19 13:27:18;;;;;;;18.20;9.82;;;;;;;;;;5046054;28;20036;-86
2022/03/19 13:29:46;;;;;;;17.92;9.13;;;;;;;;;;5044227;28;20059;-87
2022/03/19 13:32:19;;;;;;;20.23;9.73;;;;;;;;;;5046888;28;20095;-85
2022/03/19 13:34:49;;;;;;;18.40;8.98;;;;;;;;;;5049951;28;20091;-86
2022/03/19 13:37:19;;;;;;;18.55;9.07;;;;;;;;;;5053081;28;20566;-86
2022/03/19 13:39:49;;;;;;;16.52;9.30;;;;;;;;;;5045733;28;20053;-87
2022/03/19 13:42:19;;;;;;;18.52;9.10;;;;;;;;;;5043792;28;20060;-87
2022/03/19 13:44:50;;;;;;;18.55;8.48;;;;;;;;;;5044475;28;20065;-85
2022/03/19 13:47:20;;;;;;;18.35;8.88;;;;;;;;;;5051741;28;20127;-85
2022/03/19 13:49:53;;;;;;;17.40;9.25;;;;;;;;;;5046109;28;20711;-85
2022/03/19 13:52:32;;;;;;;19.50;8.68;;;;;;;;;;5053719;28;20041;-86
2022/03/19 13:55:01;;;;;;;16.52;8.32;;;;;;;;;;5048872;28;20052;-86
2022/03/19 13:57:33;;;;;;;16.85;8.55;;;;;;;;;;5049912;28;20045;-86
2022/03/19 14:00:06;;;;;;;17.48;8.88;;;;;;;;;;5047638;28;20111;-86
2022/03/19 14:02:36;;;;;;;21.40;9.20;;;;;;;;;;5049936;28;20553;-86
2022/03/19 14:05:06;;;;;;;23.83;9.98;;;;;;;;;;5047732;28;20128;-86
2022/03/19 14:07:36;;;;;;;17.63;9.68;;;;;;;;;;5043932;28;20105;-87
2022/03/19 14:10:06;;;;;;;20.92;10.70;;;;;;;;;;5045220;28;20738;-87
2022/03/19 14:12:35;;;;;;;23.02;10.10;;;;;;;;;;5052721;28;20083;-86
2022/03/19 14:15:04;;;;;;;21.08;9.93;;;;;;;;;;5048735;28;20051;-86
2022/03/19 14:17:45;;;;;;;21.65;9.68;;;;;;;;;;5048197;28;20482;-87
2022/03/19 14:20:13;;;;;;;20.92;9.80;;;;;;;;;;5048314;28;20092;-87
2022/03/19 14:22:42;;;;;;;19.63;9.40;;;;;;;;;;5049274;28;20049;-86
2022/03/19 14:25:10;;;;;;;18.38;9.65;;;;;;;;;;5048269;28;20517;-87
2022/03/19 14:27:38;;;;;;;16.38;8.77;;;;;;;;;;5048504;28;20041;-87
2022/03/19 14:30:20;;;;;;;18.55;9.40;;;;;;;;;;5049900;28;20041;-87
2022/03/19 14:32:50;;;;;;;20.40;11.05;;;;;;;;;;5045159;28;20159;-88
2022/03/19 14:35:40;;;;;;;21.45;11.10;;;;;;;;;;5052312;28;20400;-87
2022/03/19 14:38:09;;;;;;;19.45;10.00;;;;;;;;;;5037600;28;20037;-87
2022/03/19 14:40:38;;;;;;;22.80;10.95;;;;;;;;;;5052883;28;20076;-87
2022/03/19 14:43:06;;;;;;;24.13;12.25;;;;;;;;;;5046832;28;20087;-88
2022/03/19 14:45:36;;;;;;;22.83;11.32;;;;;;;;;;5054424;28;20052;-90
2022/03/19 14:48:09;;;;;;;23.92;12.48;;;;;;;;;;5063151;28;20083;-91
2022/03/19 14:50:44;;;;;;;21.02;10.40;;;;;;;;;;5039956;28;20037;-91
2022/03/19 14:53:13;;;;;;;21.80;12.70;;;;;;;;;;5053585;28;20053;-90
2022/03/19 14:55:42;;;;;;;27.15;12.73;;;;;;;;;;5048028;28;20074;-89
2022/03/19 14:58:10;;;;;;;24.65;12.07;;;;;;;;;;5050432;28;20056;-90
2022/03/19 15:00:39;;;;;;;26.45;12.57;;;;;;;;;;5059293;28;20106;-89
2022/03/19 15:03:11;;;;;;;29.38;13.77;;;;;;;;;;5035322;28;20041;-89
2022/03/19 15:05:42;;;;;;;30.38;13.77;;;;;;;;;;5052313;28;20060;-90
2022/03/19 15:08:14;;;;;;;31.00;13.85;;;;;;;;;;5031620;28;20099;-90
2022/03/19 15:10:57;;;;;;;30.88;15.25;;;;;;;;;;5035027;28;20049;-89
2022/03/19 15:13:27;;;;;;;29.48;14.73;;;;;;;;;;5051261;28;20049;-89
2022/03/19 15:15:57;;;;;;;31.38;15.38;;;;;;;;;;5038001;28;20057;-89
2022/03/19 15:18:28;;;;;;;33.25;16.77;;;;;;;;;;5040974;28;20508;-89
2022/03/19 15:20:57;;;;;;;35.97;17.98;;;;;;;;;;5052722;28;20496;-89
2022/03/19 15:23:26;;;;;;;34.88;16.30;;;;;;;;;;5050152;28;20496;-88
2022/03/19 15:25:55;;;;;;;37.22;17.88;;;;;;;;;;5052171;28;21232;-89
2022/03/19 15:28:25;;;;;;;35.35;17.42;;;;;;;;;;5052732;28;20053;-89
2022/03/19 15:30:54;;;;;;;40.67;17.40;;;;;;;;;;5051811;28;20044;-89
2022/03/19 15:33:40;;;;;;;33.00;16.83;;;;;;;;;;5050006;28;20524;-89
2022/03/19 15:36:12;;;;;;;39.55;17.33;;;;;;;;;;5048744;28;20049;-89
2022/03/19 15:38:43;;;;;;;34.83;17.73;;;;;;;;;;5046798;28;20060;-89
2022/03/19 15:41:16;;;;;;;32.47;16.30;;;;;;;;;;5046411;28;20132;-91
2022/03/19 15:43:46;;;;;;;35.60;16.90;;;;;;;;;;5051411;28;20400;-91
2022/03/19 15:46:29;;;;;;;36.95;18.58;;;;;;;;;;5038264;28;20109;-90
2022/03/19 15:49:00;;;;;;;35.67;18.48;;;;;;;;;;5049863;28;20489;-91
2022/03/19 15:51:29;;;;;;;38.33;17.60;;;;;;;;;;5052403;28;20096;-91
2022/03/19 15:53:57;;;;;;;39.88;17.90;;;;;;;;;;5057579;28;20049;-91
2022/03/19 15:56:26;;;;;;;37.90;17.88;;;;;;;;;;5056872;28;20049;-91
2022/03/19 15:58:59;;;;;;;38.25;18.13;;;;;;;;;;5020170;28;20072;-91
2022/03/19 16:01:28;;;;;;;41.50;18.88;;;;;;;;;;5037413;28;20154;-91
2022/03/19 16:03:57;;;;;;;38.25;18.33;;;;;;;;;;5047508;28;20053;-91
2022/03/19 16:06:32;;;;;;;39.88;18.73;;;;;;;;;;5038683;28;20143;-92
2022/03/19 16:09:01;;;;;;;44.05;18.42;;;;;;;;;;5056242;28;20045;-91
2022/03/19 16:11:31;;;;;;;50.05;19.88;;;;;;;;;;5046598;28;20045;-91
2022/03/19 16:14:10;;;;;;;41.00;18.10;;;;;;;;;;5052773;28;20106;-91
2022/03/19 16:16:39;;;;;;;37.53;18.20;;;;;;;;;;5064453;28;20067;-90
2022/03/19 16:19:09;;;;;;;40.83;18.92;;;;;;;;;;5050496;28;20040;-91
2022/03/19 16:21:38;;;;;;;44.47;19.85;;;;;;;;;;5064056;28;20079;-91
2022/03/19 16:24:07;;;;;;;38.20;17.92;;;;;;;;;;5063829;28;20029;-91
2022/03/19 16:26:41;;;;;;;41.60;18.27;;;;;;;;;;5068243;28;20036;-90
2022/03/19 16:29:10;;;;;;;36.28;17.15;;;;;;;;;;5054042;28;20120;-89